Time;durP1;ratioP1;P1;durP2;ratioP2;P2;SDS_P1;SDS_P2;PMS_P1;PMS_P2;Temp;Humidity;BMP_temperature;BMP_pressure;BME280_temperature;BME280_humidity;BME280_pressure;Samples;Min_cycle;Max_cycle;Signal;HPM_P1;HPM_P2
2022/11/30 04:01:12;;;;;;;93.53;25.33;;;4.40;99.90;;;;;;6146806;23;20024;-85
2022/11/30 04:03:38;;;;;;;69.00;23.40;;;4.40;99.90;;;;;;6160842;23;20016;-86
2022/11/30 04:06:05;;;;;;;70.28;24.63;;;4.30;99.90;;;;;;6136277;23;20013;-85
2022/11/30 04:08:31;;;;;;;94.43;26.08;;;4.30;99.90;;;;;;6187321;23;20016;-86
2022/11/30 04:10:59;;;;;;;74.22;24.20;;;4.30;99.90;;;;;;6187715;23;20378;-87
2022/11/30 04:13:25;;;;;;;71.07;24.48;;;4.20;99.90;;;;;;6187055;23;20489;-85
2022/11/30 04:15:52;;;;;;;88.03;24.88;;;4.20;99.90;;;;;;6136049;23;20450;-88
2022/11/30 04:18:20;;;;;;;98.22;25.58;;;4.20;99.90;;;;;;6186845;23;20012;-87
2022/11/30 04:20:46;;;;;;;188.52;30.20;;;4.20;99.90;;;;;;6135529;23;20438;-85
2022/11/30 04:23:12;;;;;;;78.07;21.58;;;4.20;99.90;;;;;;6159841;23;20013;-87
2022/11/30 04:25:39;;;;;;;174.35;21.75;;;4.10;99.90;;;;;;6186390;23;20334;-87
2022/11/30 04:28:05;;;;;;;319.85;27.80;;;4.10;99.90;;;;;;6159931;23;20021;-86
2022/11/30 04:30:36;;;;;;;233.80;21.73;;;4.00;99.90;;;;;;6160715;23;20075;-86
2022/11/30 04:33:03;;;;;;;212.25;20.38;;;3.80;99.90;;;;;;6187637;23;20447;-87
2022/11/30 04:35:28;;;;;;;269.15;21.75;;;3.80;99.90;;;;;;6136892;23;20135;-87
2022/11/30 04:37:54;;;;;;;268.25;27.35;;;3.80;99.90;;;;;;6161241;23;20052;-86
2022/11/30 04:40:20;;;;;;;228.27;23.85;;;3.80;99.90;;;;;;6161451;23;20012;-87
2022/11/30 04:42:46;;;;;;;305.35;26.85;;;3.80;99.90;;;;;;6161038;23;20009;-88
2022/11/30 04:45:12;;;;;;;270.27;25.90;;;3.80;99.90;;;;;;6160905;23;20020;-86
2022/11/30 04:47:38;;;;;;;391.60;31.20;;;3.90;99.90;;;;;;6160452;23;20117;-87
2022/11/30 04:50:05;;;;;;;278.80;26.38;;;3.90;99.90;;;;;;6135747;23;20025;-85
2022/11/30 04:52:31;;;;;;;196.32;22.98;;;3.90;99.90;;;;;;6160312;23;20075;-88
2022/11/30 04:54:57;;;;;;;322.80;32.30;;;3.90;99.90;;;;;;6187083;23;20071;-86
2022/11/30 04:57:23;;;;;;;182.40;20.45;;;3.90;99.90;;;;;;6187321;23;20335;-86
2022/11/30 04:59:49;;;;;;;201.02;26.40;;;3.90;99.90;;;;;;6136118;23;20044;-86
2022/11/30 05:02:14;;;;;;;98.75;20.58;;;4.00;99.90;;;;;;6179291;23;20023;-86
2022/11/30 05:04:40;;;;;;;76.45;20.15;;;4.00;99.90;;;;;;6187124;23;20356;-87
2022/11/30 05:07:07;;;;;;;62.47;20.05;;;4.00;99.90;;;;;;6185927;23;20447;-87
2022/11/30 05:09:33;;;;;;;37.35;16.95;;;4.10;99.90;;;;;;6161064;23;20018;-86
2022/11/30 05:11:58;;;;;;;61.33;20.90;;;4.10;99.90;;;;;;6185449;23;20016;-88
2022/11/30 05:14:24;;;;;;;67.75;21.15;;;4.10;99.90;;;;;;6184616;23;20017;-85
2022/11/30 05:16:50;;;;;;;41.42;19.05;;;4.10;99.90;;;;;;6185065;23;20017;-87
2022/11/30 05:19:16;;;;;;;47.78;19.42;;;4.20;99.90;;;;;;6185157;23;20019;-86
2022/11/30 05:21:42;;;;;;;50.13;19.80;;;4.20;99.90;;;;;;6185620;23;20343;-86
2022/11/30 05:24:08;;;;;;;48.33;19.13;;;4.20;99.90;;;;;;6185214;23;20020;-86
2022/11/30 05:26:35;;;;;;;67.68;20.73;;;4.30;99.90;;;;;;6185381;23;20055;-86
2022/11/30 05:29:03;;;;;;;68.07;22.25;;;4.30;99.90;;;;;;6186508;23;20044;-86
2022/11/30 05:31:32;;;;;;;48.33;20.90;;;4.30;99.90;;;;;;6186485;23;20453;-86
2022/11/30 05:33:58;;;;;;;82.68;23.02;;;4.30;99.90;;;;;;6185734;23;20012;-87
2022/11/30 05:36:24;;;;;;;89.70;24.27;;;4.40;99.90;;;;;;6185258;23;20100;-86
2022/11/30 05:38:49;;;;;;;59.35;23.17;;;4.40;99.90;;;;;;6184961;23;20041;-83
2022/11/30 05:41:15;;;;;;;46.38;21.65;;;4.40;99.90;;;;;;6185134;23;20013;-85
2022/11/30 05:43:41;;;;;;;74.18;24.38;;;4.40;99.90;;;;;;6185083;23;20335;-86
2022/11/30 05:46:08;;;;;;;71.13;24.73;;;4.40;99.90;;;;;;6185290;23;20191;-86
2022/11/30 05:48:34;;;;;;;72.70;24.52;;;4.40;99.90;;;;;;6188164;23;20096;-87
2022/11/30 05:51:05;;;;;;;88.88;24.45;;;4.40;99.90;;;;;;6187695;23;20016;-85
2022/11/30 05:53:45;;;;;;;67.00;23.40;;;4.40;99.90;;;;;;6162534;23;20024;-86
2022/11/30 05:56:13;;;;;;;53.15;23.10;;;4.40;99.90;;;;;;6187465;23;20068;-87
2022/11/30 05:58:39;;;;;;;55.53;22.42;;;4.40;99.90;;;;;;6162435;23;20021;-88
2022/11/30 06:01:06;;;;;;;57.90;23.35;;;4.50;99.90;;;;;;6188734;23;20009;-88
2022/11/30 06:03:33;;;;;;;74.70;24.45;;;4.50;99.90;;;;;;6137886;23;20024;-85
2022/11/30 06:06:00;;;;;;;60.33;24.67;;;4.50;99.90;;;;;;6162410;23;20057;-86
2022/11/30 06:08:26;;;;;;;60.58;24.38;;;4.50;99.90;;;;;;6162274;23;20013;-86
2022/11/30 06:10:52;;;;;;;64.85;24.35;;;4.50;99.90;;;;;;6162453;23;20455;-87
2022/11/30 06:13:18;;;;;;;73.63;26.23;;;4.50;99.90;;;;;;6162582;23;20051;-86
2022/11/30 06:15:44;;;;;;;74.32;26.08;;;4.60;99.90;;;;;;6162005;23;20036;-85
2022/11/30 06:18:13;;;;;;;72.10;26.70;;;4.60;99.90;;;;;;6188639;23;20443;-86
2022/11/30 06:20:39;;;;;;;59.53;24.17;;;4.60;99.90;;;;;;6161974;23;20462;-84
2022/11/30 06:23:05;;;;;;;55.30;24.33;;;4.60;99.90;;;;;;6162366;23;20482;-86
2022/11/30 06:25:31;;;;;;;74.43;26.63;;;4.70;99.90;;;;;;6162250;23;20013;-85
2022/11/30 06:27:56;;;;;;;76.93;27.02;;;4.60;99.90;;;;;;6163095;23;20017;-86
2022/11/30 06:30:22;;;;;;;83.10;28.95;;;4.70;99.90;;;;;;6163590;23;20017;-87
2022/11/30 06:32:50;;;;;;;80.07;28.67;;;4.70;99.90;;;;;;6163019;23;20084;-85
2022/11/30 06:35:16;;;;;;;91.55;29.63;;;4.80;99.90;;;;;;6161788;23;20351;-85
2022/11/30 06:37:43;;;;;;;77.72;29.42;;;4.80;99.90;;;;;;6161473;23;20009;-87
2022/11/30 06:40:11;;;;;;;73.40;28.70;;;4.80;99.90;;;;;;6161874;23;20371;-88
2022/11/30 06:42:37;;;;;;;73.40;29.13;;;4.90;99.90;;;;;;6187688;23;20044;-84
2022/11/30 06:45:04;;;;;;;76.57;30.90;;;4.90;99.90;;;;;;6162882;23;20013;-86
2022/11/30 06:47:30;;;;;;;79.07;28.88;;;4.90;99.90;;;;;;6161343;23;20020;-86
2022/11/30 06:49:55;;;;;;;84.18;30.88;;;5.00;99.90;;;;;;6161104;23;20013;-87
2022/11/30 06:52:21;;;;;;;74.28;29.38;;;5.00;99.90;;;;;;6186824;23;20383;-86
2022/11/30 06:54:47;;;;;;;75.95;30.85;;;5.00;99.90;;;;;;6162497;23;20450;-85
2022/11/30 06:57:12;;;;;;;100.03;32.53;;;5.00;99.90;;;;;;6160980;23;20009;-84
2022/11/30 06:59:42;;;;;;;93.72;32.38;;;5.10;99.90;;;;;;6161964;23;20100;-85
2022/11/30 07:02:12;;;;;;;97.53;30.38;;;5.10;99.90;;;;;;6178958;23;20017;-86
2022/11/30 07:04:38;;;;;;;89.13;30.27;;;5.10;99.90;;;;;;6186565;23;20013;-86
2022/11/30 07:07:04;;;;;;;83.00;31.52;;;5.10;99.90;;;;;;6186910;23;20120;-86
2022/11/30 07:09:31;;;;;;;85.38;30.65;;;5.10;99.90;;;;;;6186446;23;20517;-86
2022/11/30 07:11:57;;;;;;;76.30;30.35;;;5.10;99.90;;;;;;6161919;23;20400;-87
2022/11/30 07:14:23;;;;;;;82.22;30.73;;;5.20;99.90;;;;;;6186564;23;20020;-85
2022/11/30 07:16:48;;;;;;;95.15;32.67;;;5.20;99.90;;;;;;6186239;23;20029;-86
2022/11/30 07:19:14;;;;;;;87.82;31.52;;;5.20;99.90;;;;;;6186523;23;20048;-88
2022/11/30 07:21:39;;;;;;;86.95;30.35;;;5.20;99.90;;;;;;6187580;23;20013;-85
2022/11/30 07:26:49;;;;;;;86.38;30.73;;;5.30;99.90;;;;;;6188113;23;20156;-85
2022/11/30 07:29:15;;;;;;;82.13;30.02;;;5.30;99.90;;;;;;6188398;23;20017;-86
2022/11/30 07:31:41;;;;;;;84.40;30.52;;;5.30;99.90;;;;;;6187893;23;20017;-87
2022/11/30 07:34:08;;;;;;;105.35;33.58;;;5.30;99.90;;;;;;6161523;23;20471;-86
2022/11/30 07:36:35;;;;;;;87.22;30.75;;;5.30;99.90;;;;;;6187022;23;20080;-86
2022/11/30 07:39:01;;;;;;;87.65;32.75;;;5.40;99.90;;;;;;6186052;23;20013;-84
2022/11/30 07:41:27;;;;;;;95.15;32.58;;;5.40;99.90;;;;;;6185908;23;20020;-86
2022/11/30 07:43:53;;;;;;;106.90;33.55;;;5.40;99.90;;;;;;6186082;23;20009;-85
2022/11/30 07:46:18;;;;;;;85.18;31.35;;;5.40;99.90;;;;;;6187536;23;20011;-86
2022/11/30 07:48:45;;;;;;;95.47;33.58;;;5.50;99.90;;;;;;6185808;23;20017;-87
2022/11/30 07:51:17;;;;;;;102.97;32.47;;;5.50;99.90;;;;;;6186548;23;20048;-87
2022/11/30 07:53:44;;;;;;;94.35;31.73;;;5.50;99.90;;;;;;6188185;23;20013;-85
2022/11/30 07:56:15;;;;;;;106.70;34.55;;;5.50;99.90;;;;;;6187786;23;20079;-86
2022/11/30 07:58:42;;;;;;;100.75;33.88;;;5.50;99.90;;;;;;6185762;23;20009;-86
2022/11/30 08:01:10;;;;;;;114.22;35.85;;;5.60;99.90;;;;;;6187537;23;20013;-86
2022/11/30 08:03:37;;;;;;;123.82;36.75;;;5.60;99.90;;;;;;6187328;23;20020;-85
2022/11/30 08:06:11;;;;;;;120.68;37.42;;;5.60;99.90;;;;;;6161216;23;20013;-86
2022/11/30 08:08:42;;;;;;;123.23;38.00;;;5.60;99.90;;;;;;6161194;23;20013;-86
2022/11/30 08:11:11;;;;;;;126.35;37.80;;;5.70;99.90;;;;;;6135975;23;20016;-84
2022/11/30 08:13:37;;;;;;;102.70;33.15;;;5.60;99.90;;;;;;6187050;23;20339;-85
2022/11/30 08:16:08;;;;;;;108.72;35.58;;;5.70;99.90;;;;;;6135835;23;20428;-87
2022/11/30 08:18:34;;;;;;;121.20;37.40;;;5.70;99.90;;;;;;6186839;23;20017;-86
2022/11/30 08:21:03;;;;;;;104.45;35.00;;;5.70;99.90;;;;;;6160365;23;20013;-86
2022/11/30 08:23:34;;;;;;;102.95;34.28;;;5.70;99.90;;;;;;6160553;23;20056;-88
2022/11/30 08:26:09;;;;;;;129.85;38.08;;;5.80;99.90;;;;;;6160302;23;20320;-85
2022/11/30 08:28:35;;;;;;;136.82;37.03;;;5.80;99.90;;;;;;6187599;23;20017;-85
2022/11/30 08:31:07;;;;;;;139.48;38.38;;;5.80;99.90;;;;;;6159861;23;20012;-86
2022/11/30 08:33:35;;;;;;;137.02;38.22;;;5.90;99.90;;;;;;6187030;23;20387;-86
2022/11/30 08:36:11;;;;;;;129.30;38.22;;;5.90;99.90;;;;;;6135899;23;20048;-85
2022/11/30 08:38:37;;;;;;;132.63;38.67;;;5.90;99.90;;;;;;6161109;23;20013;-85
2022/11/30 08:41:04;;;;;;;108.55;35.25;;;6.00;99.90;;;;;;6135722;23;20458;-88
2022/11/30 08:43:30;;;;;;;130.35;38.47;;;6.00;99.90;;;;;;6160136;23;20013;-87
2022/11/30 08:45:56;;;;;;;116.00;36.08;;;6.00;99.90;;;;;;6160453;23;20040;-85
2022/11/30 08:48:22;;;;;;;122.40;37.55;;;6.00;99.90;;;;;;6136879;23;20017;-87
2022/11/30 08:50:47;;;;;;;98.18;33.60;;;6.00;99.90;;;;;;6168005;23;20055;-78
2022/11/30 08:53:14;;;;;;;135.13;35.55;;;5.90;99.90;;;;;;6171476;23;20186;-85
2022/11/30 08:55:40;;;;;;;115.47;35.47;;;6.00;99.90;;;;;;6156239;23;20020;-77
2022/11/30 08:58:06;;;;;;;128.75;35.28;;;5.90;99.90;;;;;;6173785;23;20017;-86
2022/11/30 09:00:32;;;;;;;124.57;35.85;;;5.90;99.90;;;;;;6162737;23;20017;-85
2022/11/30 09:03:05;;;;;;;114.05;35.58;;;5.90;99.90;;;;;;6187948;23;20093;-88
2022/11/30 09:05:47;;;;;;;;;;;;;;;;;;;;;
2022/11/30 09:08:13;;;;;;;118.22;36.53;;;6.00;99.90;;;;;;6159982;23;20013;-88
2022/11/30 09:10:39;;;;;;;122.90;36.75;;;6.00;99.90;;;;;;6160397;23;20023;-84
2022/11/30 09:13:04;;;;;;;110.78;35.15;;;6.00;99.90;;;;;;6160686;23;20048;-90
2022/11/30 09:15:30;;;;;;;109.22;35.60;;;6.00;99.90;;;;;;6186747;23;20060;-85
2022/11/30 09:17:55;;;;;;;109.57;34.40;;;6.10;99.90;;;;;;6135899;23;20114;-86
2022/11/30 09:20:21;;;;;;;109.72;33.50;;;6.10;99.90;;;;;;6186710;23;20028;-88
2022/11/30 09:22:47;;;;;;;92.32;33.17;;;6.20;99.90;;;;;;6160196;23;20370;-86
2022/11/30 09:25:12;;;;;;;92.57;32.78;;;6.20;99.90;;;;;;6162022;23;20109;-86
2022/11/30 09:27:38;;;;;;;93.32;31.55;;;6.30;99.90;;;;;;6162235;23;20056;-84
2022/11/30 09:30:04;;;;;;;96.55;31.38;;;6.20;99.90;;;;;;6162321;23;20009;-89
2022/11/30 09:32:30;;;;;;;86.63;31.95;;;6.30;99.90;;;;;;6161938;23;20447;-86
2022/11/30 09:34:55;;;;;;;88.50;30.75;;;6.30;99.90;;;;;;6188352;23;20005;-85
2022/11/30 09:37:22;;;;;;;78.95;29.92;;;6.30;99.90;;;;;;6188653;23;20064;-87
2022/11/30 09:39:48;;;;;;;88.70;31.88;;;6.40;99.90;;;;;;6188286;23;20148;-85
2022/11/30 09:42:27;;;;;;;82.18;31.27;;;6.40;99.90;;;;;;6188623;23;20439;-88
2022/11/30 09:45:15;;;;;;;81.80;29.88;;;6.40;99.90;;;;;;6188920;23;20020;-88
2022/11/30 09:47:46;;;;;;;87.07;30.65;;;6.40;99.90;;;;;;6161635;23;20067;-88
2022/11/30 09:50:19;;;;;;;76.82;29.23;;;6.50;99.90;;;;;;6161765;23;20013;-87
2022/11/30 09:53:02;;;;;;;77.35;28.42;;;6.50;99.90;;;;;;6161883;23;20530;-88
2022/11/30 09:55:42;;;;;;;80.70;29.40;;;6.50;99.90;;;;;;6162650;23;20017;-88
2022/11/30 09:58:23;;;;;;;78.03;30.00;;;6.50;99.90;;;;;;6137573;23;20458;-85
2022/11/30 10:00:49;;;;;;;87.50;32.08;;;6.50;99.90;;;;;;6188571;23;20091;-86
2022/11/30 10:03:17;;;;;;;78.45;31.10;;;6.50;99.90;;;;;;6188132;23;20379;-85
2022/11/30 10:05:48;;;;;;;85.53;30.77;;;6.50;99.90;;;;;;6188226;23;20086;-86
2022/11/30 10:08:16;;;;;;;72.32;29.90;;;6.60;99.90;;;;;;6187910;23;20280;-86
2022/11/30 10:11:21;;;;;;;79.60;30.25;;;6.60;99.90;;;;;;6161565;23;20100;-85
2022/11/30 10:14:18;;;;;;;75.57;29.50;;;6.60;99.90;;;;;;6107743;23;20017;-87
2022/11/30 10:17:17;;;;;;;80.95;28.88;;;6.60;99.90;;;;;;6161891;23;20435;-86
2022/11/30 10:20:05;;;;;;;74.82;29.50;;;6.70;99.90;;;;;;6122837;23;20016;-87
2022/11/30 10:22:59;;;;;;;68.10;28.23;;;6.70;99.90;;;;;;6161407;23;20013;-84
2022/11/30 10:25:46;;;;;;;68.55;28.10;;;6.70;99.90;;;;;;6119244;23;20013;-87
2022/11/30 10:28:41;;;;;;;77.50;28.75;;;6.70;99.90;;;;;;6161734;23;20023;-88
2022/11/30 10:31:12;;;;;;;69.63;28.45;;;6.70;99.90;;;;;;6119135;23;20063;-86
2022/11/30 10:33:45;;;;;;;68.07;27.52;;;6.80;99.90;;;;;;6161305;23;20380;-87
2022/11/30 10:36:24;;;;;;;65.75;28.70;;;6.80;99.90;;;;;;6136736;23;20013;-85
2022/11/30 10:38:54;;;;;;;72.47;28.33;;;6.80;99.90;;;;;;6187691;23;20024;-87
2022/11/30 10:41:42;;;;;;;59.58;25.70;;;6.80;99.90;;;;;;6161287;23;20013;-85
2022/11/30 10:44:33;;;;;;;63.72;27.05;;;6.80;99.90;;;;;;6136502;23;20447;-86
2022/11/30 10:47:06;;;;;;;63.35;26.33;;;6.90;99.90;;;;;;6161303;23;20005;-89
2022/11/30 10:49:34;;;;;;;59.85;28.13;;;6.90;99.90;;;;;;6136641;23;20096;-87
2022/11/30 10:52:18;;;;;;;;;;;;;;;;;;;;;
2022/11/30 10:54:44;;;;;;;54.25;25.73;;;6.90;99.90;;;;;;6160743;23;20080;-86
2022/11/30 10:57:13;;;;;;;61.47;26.90;;;6.90;99.90;;;;;;6161255;23;20013;-83
2022/11/30 10:59:42;;;;;;;55.38;25.85;;;7.00;99.90;;;;;;6186989;23;20020;-88
2022/11/30 11:02:32;;;;;;;56.58;25.60;;;7.00;99.90;;;;;;6177821;23;20009;-87
2022/11/30 11:05:19;;;;;;;56.67;26.05;;;7.00;99.90;;;;;;6160956;23;20063;-88
2022/11/30 11:07:53;;;;;;;60.67;26.42;;;7.00;99.90;;;;;;6185957;23;20013;-88
2022/11/30 11:10:29;;;;;;;55.30;25.55;;;7.00;99.90;;;;;;6185664;23;20016;-86
2022/11/30 11:12:56;;;;;;;56.63;25.58;;;7.10;99.90;;;;;;6160998;23;20009;-87
2022/11/30 11:15:32;;;;;;;54.72;25.30;;;7.00;99.90;;;;;;6185707;23;20138;-87
2022/11/30 11:18:21;;;;;;;56.97;25.83;;;7.10;99.90;;;;;;6161846;23;20021;-88
2022/11/30 11:20:58;;;;;;;57.65;26.77;;;7.00;99.90;;;;;;6160668;23;20017;-85
2022/11/30 11:23:32;;;;;;;57.92;25.55;;;7.10;99.90;;;;;;6185767;23;20067;-82
2022/11/30 11:25:58;;;;;;;57.10;24.90;;;7.10;99.90;;;;;;6186212;23;20293;-87
2022/11/30 11:28:24;;;;;;;55.15;25.02;;;7.10;99.90;;;;;;6185271;23;20306;-86
2022/11/30 11:30:55;;;;;;;56.70;24.92;;;7.20;99.90;;;;;;6162006;23;20334;-85
2022/11/30 11:33:28;;;;;;;55.40;25.77;;;7.20;99.90;;;;;;6186772;23;20040;-88
2022/11/30 11:36:07;;;;;;;56.00;26.25;;;7.20;99.90;;;;;;6188277;23;20028;-88
2022/11/30 11:38:53;;;;;;;56.83;26.02;;;7.20;99.90;;;;;;6185429;23;20020;-86
2022/11/30 11:41:36;;;;;;;53.88;26.02;;;7.30;99.90;;;;;;6161264;23;20031;-85
2022/11/30 11:44:08;;;;;;;54.35;24.75;;;7.30;99.90;;;;;;6188183;23;20009;-87
2022/11/30 11:46:37;;;;;;;58.42;26.33;;;7.30;99.90;;;;;;6185592;23;20009;-87
2022/11/30 11:49:19;;;;;;;56.70;26.13;;;7.30;99.90;;;;;;6187983;23;20087;-86
2022/11/30 11:51:45;;;;;;;59.15;26.27;;;7.30;99.90;;;;;;6186031;23;20017;-86
2022/11/30 11:54:11;;;;;;;51.08;24.65;;;7.30;99.90;;;;;;6161166;23;20100;-85
2022/11/30 11:56:36;;;;;;;52.88;25.50;;;7.30;99.90;;;;;;6161841;23;20378;-87
2022/11/30 11:59:40;;;;;;;57.40;26.75;;;7.30;99.90;;;;;;6186481;23;20017;-86
2022/11/30 12:02:27;;;;;;;49.70;24.73;;;7.40;99.90;;;;;;6179702;23;20343;-85
2022/11/30 12:04:52;;;;;;;49.80;24.65;;;7.30;99.90;;;;;;6186027;23;20049;-88
2022/11/30 12:07:39;;;;;;;55.08;26.27;;;7.30;99.90;;;;;;6185368;23;20032;-85
2022/11/30 12:10:33;;;;;;;54.28;26.45;;;7.40;99.90;;;;;;6185045;23;20017;-86
2022/11/30 12:13:02;;;;;;;53.42;26.63;;;7.40;99.90;;;;;;6188365;23;20009;-87
2022/11/30 12:15:35;;;;;;;53.88;25.33;;;7.40;99.90;;;;;;6185164;23;20343;-84
2022/11/30 12:18:14;;;;;;;55.50;24.80;;;7.40;99.90;;;;;;6160575;23;20014;-86
2022/11/30 12:20:48;;;;;;;51.15;25.08;;;7.40;99.90;;;;;;6185819;23;20009;-85
2022/11/30 12:23:29;;;;;;;51.55;25.38;;;7.40;99.90;;;;;;6185295;23;20071;-86
2022/11/30 12:26:17;;;;;;;49.85;24.17;;;7.40;99.90;;;;;;6186919;23;20017;-86
2022/11/30 12:28:52;;;;;;;53.33;24.52;;;7.40;99.90;;;;;;6184572;23;20407;-85
2022/11/30 12:31:18;;;;;;;54.38;24.88;;;7.40;99.90;;;;;;6185254;23;20442;-85
2022/11/30 12:33:55;;;;;;;52.75;24.50;;;7.40;99.90;;;;;;6160524;23;20099;-86
2022/11/30 12:36:29;;;;;;;50.60;23.85;;;7.40;99.90;;;;;;6184885;23;20020;-86
2022/11/30 12:39:04;;;;;;;52.33;22.17;;;7.40;99.90;;;;;;6184982;23;20017;-85
2022/11/30 12:41:39;;;;;;;48.05;23.42;;;7.30;99.90;;;;;;6159949;23;20052;-88
2022/11/30 12:44:11;;;;;;;48.47;24.42;;;7.40;99.90;;;;;;6159803;23;20016;-84
2022/11/30 12:47:02;;;;;;;50.15;24.40;;;7.30;99.90;;;;;;6184894;23;20013;-87
2022/11/30 12:49:53;;;;;;;50.50;24.70;;;7.30;99.90;;;;;;6168655;23;20021;-86
2022/11/30 12:52:33;;;;;;;49.05;24.17;;;7.30;99.90;;;;;;6184863;23;20024;-86
2022/11/30 12:55:21;;;;;;;48.70;24.95;;;7.30;99.90;;;;;;6160992;23;20024;-84
2022/11/30 12:58:27;;;;;;;51.85;24.80;;;7.30;99.90;;;;;;6184870;23;20024;-84
2022/11/30 13:01:23;;;;;;;52.47;25.77;;;7.20;99.90;;;;;;6160434;23;20009;-86
2022/11/30 13:03:57;;;;;;;49.80;25.17;;;7.20;99.90;;;;;;6186264;23;20013;-86
2022/11/30 13:06:30;;;;;;;50.85;25.20;;;7.20;99.90;;;;;;6186382;23;20013;-86
2022/11/30 13:09:05;;;;;;;55.30;26.42;;;7.20;99.90;;;;;;6186308;23;20013;-87
2022/11/30 13:11:45;;;;;;;59.58;27.45;;;7.20;99.90;;;;;;6186250;23;20021;-86
2022/11/30 13:14:20;;;;;;;54.88;27.42;;;7.20;99.90;;;;;;6186247;23;20028;-85
2022/11/30 13:16:47;;;;;;;56.58;28.15;;;7.20;99.90;;;;;;6187118;23;20023;-86
2022/11/30 13:19:33;;;;;;;59.17;27.98;;;7.20;99.90;;;;;;6185937;23;20021;-86
2022/11/30 13:22:03;;;;;;;54.03;26.40;;;7.20;99.90;;;;;;6187843;23;20055;-85
2022/11/30 13:24:37;;;;;;;64.13;28.45;;;7.20;99.90;;;;;;6187954;23;20009;-85
2022/11/30 13:27:29;;;;;;;62.28;29.70;;;7.20;99.90;;;;;;6186474;23;20389;-85
2022/11/30 13:30:33;;;;;;;63.67;29.80;;;7.10;99.90;;;;;;6161404;23;20430;-79
2022/11/30 13:33:36;;;;;;;61.55;30.08;;;7.20;99.90;;;;;;6187983;23;20331;-85
2022/11/30 13:36:24;;;;;;;63.80;30.80;;;7.10;99.90;;;;;;6184518;23;20048;-86
2022/11/30 13:39:08;;;;;;;65.95;31.00;;;7.10;99.90;;;;;;6186766;23;20064;-85
2022/11/30 13:41:35;;;;;;;64.95;30.42;;;7.10;99.90;;;;;;6188600;23;20588;-85
2022/11/30 13:44:02;;;;;;;63.97;32.22;;;7.10;99.90;;;;;;6188954;23;20009;-85
2022/11/30 13:46:28;;;;;;;65.30;31.08;;;7.10;99.90;;;;;;6191924;23;20048;-87
2022/11/30 13:49:28;;;;;;;62.15;30.95;;;7.10;99.90;;;;;;6208968;23;20558;-85
2022/11/30 13:51:54;;;;;;;63.63;30.73;;;7.10;99.90;;;;;;6196013;23;20055;-85
2022/11/30 13:54:43;;;;;;;60.35;30.45;;;7.10;99.90;;;;;;6190736;23;20009;-84
2022/11/30 13:57:24;;;;;;;62.63;31.35;;;7.10;99.90;;;;;;6162792;23;20114;-85
2022/11/30 13:59:54;;;;;;;66.03;30.85;;;7.00;99.90;;;;;;6190060;23;20427;-85
2022/11/30 14:02:32;;;;;;;67.82;32.45;;;7.00;99.90;;;;;;6187764;23;20024;-85
2022/11/30 14:05:21;;;;;;;67.75;32.30;;;7.00;99.90;;;;;;6188903;23;20020;-84
2022/11/30 14:07:59;;;;;;;62.33;31.10;;;7.00;99.90;;;;;;6187021;23;20040;-85
2022/11/30 14:10:34;;;;;;;67.90;31.08;;;7.00;99.90;;;;;;6161451;23;20019;-84
2022/11/30 14:13:12;;;;;;;59.25;29.05;;;7.00;99.90;;;;;;6162579;23;20466;-85
2022/11/30 14:15:38;;;;;;;65.68;31.05;;;7.00;99.90;;;;;;6187075;23;20338;-83
2022/11/30 14:18:06;;;;;;;66.13;32.65;;;7.00;99.90;;;;;;6186867;23;20089;-85
2022/11/30 14:20:37;;;;;;;63.05;30.65;;;7.00;99.90;;;;;;6161776;23;20059;-85
2022/11/30 14:23:11;;;;;;;62.38;31.27;;;7.00;99.90;;;;;;6186349;23;20017;-84
2022/11/30 14:25:41;;;;;;;64.38;31.88;;;7.00;99.90;;;;;;6187860;23;20017;-84
2022/11/30 14:28:10;;;;;;;68.38;31.77;;;7.00;99.90;;;;;;6185921;23;20013;-86
2022/11/30 14:30:38;;;;;;;64.10;31.17;;;7.00;99.90;;;;;;6185629;23;20049;-86
2022/11/30 14:33:14;;;;;;;65.03;30.30;;;7.00;99.90;;;;;;6185719;23;20048;-86
2022/11/30 14:35:40;;;;;;;58.13;27.85;;;6.90;99.90;;;;;;6187696;23;20427;-85
2022/11/30 14:38:30;;;;;;;59.88;30.20;;;6.90;99.90;;;;;;6188227;23;20324;-86
2022/11/30 14:40:56;;;;;;;63.15;29.15;;;6.90;99.90;;;;;;6187109;23;20009;-86
2022/11/30 14:43:22;;;;;;;63.20;30.85;;;6.90;99.90;;;;;;6185571;23;20020;-86
2022/11/30 14:46:05;;;;;;;58.55;29.05;;;6.90;99.90;;;;;;6186633;23;20013;-85
2022/11/30 14:48:30;;;;;;;63.63;30.30;;;6.90;99.90;;;;;;6187179;23;20065;-86
2022/11/30 14:51:02;;;;;;;60.13;30.40;;;6.90;99.90;;;;;;6185485;23;20009;-84
2022/11/30 14:53:54;;;;;;;58.90;28.65;;;6.90;99.90;;;;;;6185656;23;20021;-85
2022/11/30 14:56:31;;;;;;;61.63;29.95;;;6.90;99.90;;;;;;6185652;23;20100;-85
2022/11/30 14:59:06;;;;;;;62.90;30.13;;;6.80;99.90;;;;;;6185111;23;20017;-85
2022/11/30 15:01:32;;;;;;;63.53;32.40;;;6.80;99.90;;;;;;6186707;23;20465;-86
2022/11/30 15:04:09;;;;;;;64.65;31.42;;;6.80;99.90;;;;;;6160415;23;20051;-86
2022/11/30 15:06:37;;;;;;;66.82;31.67;;;6.80;99.90;;;;;;6160322;23;20415;-88
2022/11/30 15:09:04;;;;;;;62.50;31.17;;;6.80;99.90;;;;;;6135819;23;20013;-85
2022/11/30 15:11:29;;;;;;;65.97;31.90;;;6.80;99.90;;;;;;6160212;23;20064;-87
2022/11/30 15:14:06;;;;;;;68.68;32.63;;;6.80;99.90;;;;;;6160464;23;20072;-85
2022/11/30 15:16:32;;;;;;;65.30;32.30;;;6.80;99.90;;;;;;6160715;23;20149;-87
2022/11/30 15:18:58;;;;;;;63.33;31.75;;;6.80;99.90;;;;;;6160493;23;20372;-86
2022/11/30 15:21:30;;;;;;;70.13;32.17;;;6.70;99.90;;;;;;6160582;23;20017;-90
2022/11/30 15:23:58;;;;;;;71.93;33.53;;;6.70;99.90;;;;;;6160746;23;20005;-91
2022/11/30 15:26:27;;;;;;;66.47;33.55;;;6.70;99.90;;;;;;6186912;23;20469;-85
2022/11/30 15:29:04;;;;;;;68.47;31.83;;;6.70;99.90;;;;;;6160730;23;20056;-85
2022/11/30 15:31:37;;;;;;;70.90;33.53;;;6.70;99.90;;;;;;6160439;23;20016;-86
2022/11/30 15:34:04;;;;;;;72.10;31.95;;;6.70;99.90;;;;;;6136144;23;20017;-86
2022/11/30 15:36:38;;;;;;;68.88;32.65;;;6.70;99.90;;;;;;6135878;23;20024;-87
2022/11/30 15:39:06;;;;;;;73.65;33.30;;;6.70;99.90;;;;;;6187139;23;20337;-86
2022/11/30 15:41:33;;;;;;;72.07;32.72;;;6.60;99.90;;;;;;6136080;23;20009;-86
2022/11/30 15:44:01;;;;;;;76.10;32.97;;;6.60;99.90;;;;;;6160071;23;20009;-86
2022/11/30 15:46:32;;;;;;;74.43;32.90;;;6.60;99.90;;;;;;6159720;23;20019;-87
2022/11/30 15:49:05;;;;;;;72.28;33.63;;;6.60;99.90;;;;;;6159938;23;20023;-85
2022/11/30 15:51:37;;;;;;;78.30;33.55;;;6.60;99.90;;;;;;6159872;23;20013;-86
2022/11/30 15:54:03;;;;;;;73.65;33.00;;;6.60;99.90;;;;;;6160825;23;20017;-86
2022/11/30 15:56:29;;;;;;;72.25;33.03;;;6.60;99.90;;;;;;6160244;23;20017;-87
2022/11/30 15:59:05;;;;;;;73.78;33.30;;;6.60;99.90;;;;;;6159956;23;20111;-87
2022/11/30 16:02:03;;;;;;;70.20;32.65;;;6.60;99.90;;;;;;6144778;23;20009;-86
2022/11/30 16:04:55;;;;;;;74.85;33.60;;;6.60;99.90;;;;;;6184623;23;20014;-85
2022/11/30 16:07:38;;;;;;;73.68;33.10;;;6.60;99.90;;;;;;6184239;23;20013;-85
2022/11/30 16:10:17;;;;;;;72.90;33.38;;;6.60;99.90;;;;;;6185965;23;20013;-86
2022/11/30 16:12:43;;;;;;;78.25;33.10;;;6.60;99.90;;;;;;6186497;23;20327;-85
2022/11/30 16:15:24;;;;;;;78.75;34.50;;;6.50;99.90;;;;;;6184928;23;20009;-85
2022/11/30 16:17:51;;;;;;;70.25;32.00;;;6.60;99.90;;;;;;6186787;23;20013;-87
2022/11/30 16:20:19;;;;;;;76.13;33.67;;;6.60;99.90;;;;;;6159603;23;20009;-86
2022/11/30 16:22:46;;;;;;;74.93;33.08;;;6.50;99.90;;;;;;6186647;23;20439;-85
2022/11/30 16:25:21;;;;;;;70.55;32.20;;;6.50;99.90;;;;;;6185644;23;20017;-84
2022/11/30 16:27:47;;;;;;;71.47;32.40;;;6.60;99.90;;;;;;6184835;23;20048;-85
2022/11/30 16:30:16;;;;;;;70.75;33.60;;;6.60;99.90;;;;;;6161420;23;20302;-87
2022/11/30 16:32:42;;;;;;;81.95;35.05;;;6.50;99.90;;;;;;6186719;23;20014;-85
2022/11/30 16:35:21;;;;;;;73.75;33.25;;;6.50;99.90;;;;;;6159509;23;20116;-86
2022/11/30 16:37:48;;;;;;;74.97;34.50;;;6.60;99.90;;;;;;6186547;23;20017;-87
2022/11/30 16:40:14;;;;;;;74.57;32.53;;;6.50;99.90;;;;;;6186167;23;20009;-84
2022/11/30 16:42:40;;;;;;;82.85;34.85;;;6.50;99.90;;;;;;6184215;23;20013;-85
2022/11/30 16:45:17;;;;;;;78.53;35.10;;;6.50;99.90;;;;;;6160238;23;20088;-85
2022/11/30 16:47:43;;;;;;;73.63;32.03;;;6.60;99.90;;;;;;6160232;23;20009;-85
2022/11/30 16:50:10;;;;;;;78.80;34.85;;;6.50;99.90;;;;;;6185347;23;20016;-85
2022/11/30 16:52:37;;;;;;;81.60;34.67;;;6.50;99.90;;;;;;6185942;23;20036;-85
2022/11/30 16:55:07;;;;;;;79.20;34.30;;;6.50;99.90;;;;;;6184175;23;20343;-84
2022/11/30 16:57:33;;;;;;;80.13;35.58;;;6.50;99.90;;;;;;6184158;23;20443;-84
2022/11/30 16:59:59;;;;;;;78.90;33.90;;;6.50;99.90;;;;;;6184308;23;20017;-86
2022/11/30 17:02:26;;;;;;;79.45;35.22;;;6.50;99.90;;;;;;6159584;23;20024;-87
2022/11/30 17:04:52;;;;;;;89.90;36.38;;;6.50;99.90;;;;;;6184613;23;20334;-86